sensor_id;sensor_type;location;lat;lon;timestamp;P1;durP1;ratioP1;P2;durP2;ratioP2
44143;SDS011;71749;51.920;4.492;2024-01-15T00:02:22;7.00;;;1.48;;
44143;SDS011;71749;51.920;4.492;2024-01-15T00:05:08;7.97;;;1.27;;
44143;SDS011;71749;51.920;4.492;2024-01-15T00:07:53;9.35;;;1.70;;
44143;SDS011;71749;51.920;4.492;2024-01-15T00:10:39;10.60;;;1.85;;
44143;SDS011;71749;51.920;4.492;2024-01-15T00:13:25;10.82;;;1.63;;
44143;SDS011;71749;51.920;4.492;2024-01-15T00:16:11;9.73;;;1.75;;
44143;SDS011;71749;51.920;4.492;2024-01-15T00:18:59;10.23;;;1.70;;
44143;SDS011;71749;51.920;4.492;2024-01-15T00:21:45;7.60;;;1.55;;
44143;SDS011;71749;51.920;4.492;2024-01-15T00:24:31;7.13;;;1.67;;
44143;SDS011;71749;51.920;4.492;2024-01-15T00:27:16;10.20;;;1.85;;
44143;SDS011;71749;51.920;4.492;2024-01-15T00:30:02;9.77;;;1.73;;
44143;SDS011;71749;51.920;4.492;2024-01-15T00:32:47;6.75;;;1.20;;
44143;SDS011;71749;51.920;4.492;2024-01-15T00:35:33;6.07;;;1.23;;
44143;SDS011;71749;51.920;4.492;2024-01-15T00:38:18;9.27;;;1.92;;
44143;SDS011;71749;51.920;4.492;2024-01-15T00:41:05;6.63;;;1.40;;
44143;SDS011;71749;51.920;4.492;2024-01-15T00:43:51;5.97;;;1.65;;
44143;SDS011;71749;51.920;4.492;2024-01-15T00:46:46;8.07;;;1.55;;
44143;SDS011;71749;51.920;4.492;2024-01-15T00:49:31;5.88;;;1.25;;
44143;SDS011;71749;51.920;4.492;2024-01-15T00:52:17;8.75;;;1.50;;
44143;SDS011;71749;51.920;4.492;2024-01-15T00:55:02;10.35;;;1.67;;
44143;SDS011;71749;51.920;4.492;2024-01-15T00:57:48;6.40;;;1.10;;
44143;SDS011;71749;51.920;4.492;2024-01-15T01:00:33;6.65;;;1.63;;
44143;SDS011;71749;51.920;4.492;2024-01-15T01:03:19;5.90;;;1.15;;
44143;SDS011;71749;51.920;4.492;2024-01-15T01:06:04;8.18;;;1.90;;
44143;SDS011;71749;51.920;4.492;2024-01-15T01:08:50;7.53;;;1.40;;
44143;SDS011;71749;51.920;4.492;2024-01-15T01:11:35;9.85;;;1.70;;
44143;SDS011;71749;51.920;4.492;2024-01-15T01:14:20;8.25;;;1.30;;
44143;SDS011;71749;51.920;4.492;2024-01-15T01:17:07;5.75;;;1.60;;
44143;SDS011;71749;51.920;4.492;2024-01-15T01:19:52;9.25;;;1.52;;
44143;SDS011;71749;51.920;4.492;2024-01-15T01:22:38;6.97;;;1.15;;
44143;SDS011;71749;51.920;4.492;2024-01-15T01:25:24;5.85;;;1.10;;
44143;SDS011;71749;51.920;4.492;2024-01-15T01:28:09;3.60;;;1.10;;
44143;SDS011;71749;51.920;4.492;2024-01-15T01:30:54;5.60;;;1.05;;
44143;SDS011;71749;51.920;4.492;2024-01-15T01:33:40;4.30;;;1.30;;
44143;SDS011;71749;51.920;4.492;2024-01-15T01:36:25;6.20;;;1.13;;
44143;SDS011;71749;51.920;4.492;2024-01-15T01:39:11;10.15;;;1.45;;
44143;SDS011;71749;51.920;4.492;2024-01-15T01:41:56;8.77;;;1.35;;
44143;SDS011;71749;51.920;4.492;2024-01-15T01:44:43;8.90;;;1.48;;
44143;SDS011;71749;51.920;4.492;2024-01-15T01:47:28;5.60;;;1.20;;
44143;SDS011;71749;51.920;4.492;2024-01-15T01:50:13;8.45;;;1.50;;
44143;SDS011;71749;51.920;4.492;2024-01-15T01:53:00;9.63;;;1.48;;
44143;SDS011;71749;51.920;4.492;2024-01-15T01:55:46;6.80;;;1.30;;
44143;SDS011;71749;51.920;4.492;2024-01-15T01:58:33;6.25;;;1.00;;
44143;SDS011;71749;51.920;4.492;2024-01-15T02:01:18;6.15;;;1.30;;
44143;SDS011;71749;51.920;4.492;2024-01-15T02:04:04;8.85;;;1.58;;
44143;SDS011;71749;51.920;4.492;2024-01-15T02:06:50;6.43;;;1.10;;
44143;SDS011;71749;51.920;4.492;2024-01-15T02:09:36;8.23;;;1.30;;
44143;SDS011;71749;51.920;4.492;2024-01-15T02:12:22;9.32;;;1.58;;
44143;SDS011;71749;51.920;4.492;2024-01-15T02:15:07;7.60;;;1.65;;
44143;SDS011;71749;51.920;4.492;2024-01-15T02:20:53;10.02;;;1.50;;
44143;SDS011;71749;51.920;4.492;2024-01-15T02:23:38;7.18;;;1.50;;
44143;SDS011;71749;51.920;4.492;2024-01-15T02:26:24;8.95;;;1.30;;
44143;SDS011;71749;51.920;4.492;2024-01-15T02:29:10;10.80;;;2.85;;
44143;SDS011;71749;51.920;4.492;2024-01-15T02:31:56;4.82;;;0.90;;
44143;SDS011;71749;51.920;4.492;2024-01-15T02:34:41;7.43;;;1.10;;
44143;SDS011;71749;51.920;4.492;2024-01-15T02:37:26;4.20;;;0.90;;
44143;SDS011;71749;51.920;4.492;2024-01-15T02:40:11;6.50;;;1.20;;
44143;SDS011;71749;51.920;4.492;2024-01-15T02:42:57;2.97;;;0.68;;
44143;SDS011;71749;51.920;4.492;2024-01-15T02:45:42;4.03;;;0.90;;
44143;SDS011;71749;51.920;4.492;2024-01-15T02:48:28;5.05;;;1.02;;
44143;SDS011;71749;51.920;4.492;2024-01-15T02:51:13;2.95;;;0.65;;
44143;SDS011;71749;51.920;4.492;2024-01-15T02:53:58;4.93;;;1.15;;
44143;SDS011;71749;51.920;4.492;2024-01-15T02:56:44;4.18;;;0.70;;
44143;SDS011;71749;51.920;4.492;2024-01-15T02:59:29;4.43;;;0.73;;
44143;SDS011;71749;51.920;4.492;2024-01-15T03:02:14;3.55;;;0.60;;
44143;SDS011;71749;51.920;4.492;2024-01-15T03:04:59;4.55;;;1.13;;
44143;SDS011;71749;51.920;4.492;2024-01-15T03:07:45;3.90;;;0.80;;
44143;SDS011;71749;51.920;4.492;2024-01-15T03:10:30;2.95;;;0.60;;
44143;SDS011;71749;51.920;4.492;2024-01-15T03:13:15;3.53;;;1.13;;
44143;SDS011;71749;51.920;4.492;2024-01-15T03:16:01;2.72;;;0.70;;
44143;SDS011;71749;51.920;4.492;2024-01-15T03:18:47;2.75;;;0.63;;
44143;SDS011;71749;51.920;4.492;2024-01-15T03:21:32;3.20;;;0.80;;
44143;SDS011;71749;51.920;4.492;2024-01-15T03:24:17;3.38;;;0.60;;
44143;SDS011;71749;51.920;4.492;2024-01-15T03:27:03;3.30;;;0.80;;
44143;SDS011;71749;51.920;4.492;2024-01-15T03:29:49;3.53;;;0.60;;
44143;SDS011;71749;51.920;4.492;2024-01-15T03:32:34;3.95;;;0.77;;
44143;SDS011;71749;51.920;4.492;2024-01-15T03:35:19;4.88;;;1.00;;
44143;SDS011;71749;51.920;4.492;2024-01-15T03:38:05;4.45;;;1.02;;
44143;SDS011;71749;51.920;4.492;2024-01-15T03:40:50;2.38;;;0.60;;
44143;SDS011;71749;51.920;4.492;2024-01-15T03:43:36;3.45;;;1.00;;
44143;SDS011;71749;51.920;4.492;2024-01-15T03:46:21;4.75;;;0.85;;
44143;SDS011;71749;51.920;4.492;2024-01-15T03:49:06;4.80;;;1.13;;
44143;SDS011;71749;51.920;4.492;2024-01-15T03:51:52;5.38;;;1.08;;
44143;SDS011;71749;51.920;4.492;2024-01-15T03:54:37;4.22;;;0.75;;
44143;SDS011;71749;51.920;4.492;2024-01-15T03:57:23;6.60;;;1.15;;
44143;SDS011;71749;51.920;4.492;2024-01-15T04:00:08;2.75;;;0.68;;
44143;SDS011;71749;51.920;4.492;2024-01-15T04:02:54;3.50;;;0.90;;
44143;SDS011;71749;51.920;4.492;2024-01-15T04:05:39;4.32;;;1.13;;
44143;SDS011;71749;51.920;4.492;2024-01-15T04:08:25;1.95;;;0.40;;
44143;SDS011;71749;51.920;4.492;2024-01-15T04:11:10;2.13;;;0.50;;
44143;SDS011;71749;51.920;4.492;2024-01-15T04:13:56;4.28;;;0.88;;
44143;SDS011;71749;51.920;4.492;2024-01-15T04:16:41;3.30;;;0.70;;
44143;SDS011;71749;51.920;4.492;2024-01-15T04:19:26;3.60;;;0.90;;
44143;SDS011;71749;51.920;4.492;2024-01-15T04:22:12;3.90;;;0.80;;
44143;SDS011;71749;51.920;4.492;2024-01-15T04:24:57;4.13;;;0.77;;
44143;SDS011;71749;51.920;4.492;2024-01-15T04:27:42;5.15;;;1.08;;
44143;SDS011;71749;51.920;4.492;2024-01-15T04:30:28;3.47;;;0.68;;
44143;SDS011;71749;51.920;4.492;2024-01-15T04:33:13;4.68;;;0.90;;
44143;SDS011;71749;51.920;4.492;2024-01-15T04:36:01;5.20;;;1.02;;
44143;SDS011;71749;51.920;4.492;2024-01-15T04:38:48;3.30;;;0.70;;
44143;SDS011;71749;51.920;4.492;2024-01-15T04:41:33;4.03;;;0.68;;
44143;SDS011;71749;51.920;4.492;2024-01-15T04:44:19;3.30;;;0.70;;
44143;SDS011;71749;51.920;4.492;2024-01-15T04:47:04;4.28;;;1.05;;
44143;SDS011;71749;51.920;4.492;2024-01-15T04:49:51;5.00;;;1.13;;
44143;SDS011;71749;51.920;4.492;2024-01-15T04:52:37;2.60;;;0.50;;
44143;SDS011;71749;51.920;4.492;2024-01-15T04:55:22;3.60;;;0.80;;
44143;SDS011;71749;51.920;4.492;2024-01-15T04:58:08;3.83;;;0.88;;
44143;SDS011;71749;51.920;4.492;2024-01-15T05:00:53;4.78;;;0.95;;
44143;SDS011;71749;51.920;4.492;2024-01-15T05:03:39;4.03;;;1.23;;
44143;SDS011;71749;51.920;4.492;2024-01-15T05:06:25;1.25;;;0.50;;
44143;SDS011;71749;51.920;4.492;2024-01-15T05:09:10;1.85;;;0.70;;
44143;SDS011;71749;51.920;4.492;2024-01-15T05:11:55;2.42;;;0.60;;
44143;SDS011;71749;51.920;4.492;2024-01-15T05:14:41;2.35;;;0.70;;
44143;SDS011;71749;51.920;4.492;2024-01-15T05:17:27;2.60;;;0.55;;
44143;SDS011;71749;51.920;4.492;2024-01-15T05:20:13;1.55;;;0.50;;
44143;SDS011;71749;51.920;4.492;2024-01-15T05:22:58;2.17;;;0.50;;
44143;SDS011;71749;51.920;4.492;2024-01-15T05:25:43;2.70;;;0.60;;
44143;SDS011;71749;51.920;4.492;2024-01-15T05:28:28;2.95;;;0.68;;
44143;SDS011;71749;51.920;4.492;2024-01-15T05:31:14;2.47;;;0.80;;
44143;SDS011;71749;51.920;4.492;2024-01-15T05:34:00;2.88;;;1.23;;
44143;SDS011;71749;51.920;4.492;2024-01-15T05:36:45;3.55;;;0.70;;
44143;SDS011;71749;51.920;4.492;2024-01-15T05:39:33;2.72;;;0.60;;
44143;SDS011;71749;51.920;4.492;2024-01-15T05:42:18;2.78;;;0.70;;
44143;SDS011;71749;51.920;4.492;2024-01-15T05:45:03;1.88;;;0.60;;
44143;SDS011;71749;51.920;4.492;2024-01-15T05:47:49;2.55;;;0.70;;
44143;SDS011;71749;51.920;4.492;2024-01-15T05:50:35;2.53;;;0.80;;
44143;SDS011;71749;51.920;4.492;2024-01-15T05:53:20;3.17;;;0.80;;
44143;SDS011;71749;51.920;4.492;2024-01-15T05:56:05;4.03;;;1.10;;
44143;SDS011;71749;51.920;4.492;2024-01-15T05:58:51;5.35;;;1.25;;
44143;SDS011;71749;51.920;4.492;2024-01-15T06:01:36;4.93;;;1.20;;
44143;SDS011;71749;51.920;4.492;2024-01-15T06:04:22;5.43;;;1.10;;
44143;SDS011;71749;51.920;4.492;2024-01-15T06:07:07;4.45;;;1.05;;
44143;SDS011;71749;51.920;4.492;2024-01-15T06:09:52;4.72;;;0.93;;
44143;SDS011;71749;51.920;4.492;2024-01-15T06:12:38;3.05;;;0.80;;
44143;SDS011;71749;51.920;4.492;2024-01-15T06:15:23;5.25;;;1.00;;
44143;SDS011;71749;51.920;4.492;2024-01-15T06:18:08;3.72;;;0.80;;
44143;SDS011;71749;51.920;4.492;2024-01-15T06:20:55;5.80;;;1.08;;
44143;SDS011;71749;51.920;4.492;2024-01-15T06:23:40;5.65;;;0.90;;
44143;SDS011;71749;51.920;4.492;2024-01-15T06:26:26;3.17;;;0.70;;
44143;SDS011;71749;51.920;4.492;2024-01-15T06:29:11;2.45;;;0.50;;
44143;SDS011;71749;51.920;4.492;2024-01-15T06:31:57;4.78;;;1.13;;
44143;SDS011;71749;51.920;4.492;2024-01-15T06:34:42;3.92;;;0.68;;
44143;SDS011;71749;51.920;4.492;2024-01-15T06:37:28;3.80;;;0.70;;
44143;SDS011;71749;51.920;4.492;2024-01-15T06:40:13;3.35;;;0.60;;
44143;SDS011;71749;51.920;4.492;2024-01-15T06:42:59;2.83;;;0.57;;
44143;SDS011;71749;51.920;4.492;2024-01-15T06:45:44;3.85;;;0.88;;
44143;SDS011;71749;51.920;4.492;2024-01-15T06:48:29;2.45;;;0.70;;
44143;SDS011;71749;51.920;4.492;2024-01-15T06:51:15;2.63;;;0.80;;
44143;SDS011;71749;51.920;4.492;2024-01-15T06:54:01;6.35;;;1.73;;
44143;SDS011;71749;51.920;4.492;2024-01-15T06:56:47;4.80;;;1.00;;
44143;SDS011;71749;51.920;4.492;2024-01-15T06:59:33;6.38;;;1.05;;
44143;SDS011;71749;51.920;4.492;2024-01-15T07:02:20;5.53;;;0.80;;
44143;SDS011;71749;51.920;4.492;2024-01-15T07:05:06;6.75;;;1.42;;
44143;SDS011;71749;51.920;4.492;2024-01-15T07:07:52;3.72;;;1.20;;
44143;SDS011;71749;51.920;4.492;2024-01-15T07:10:37;4.20;;;1.08;;
44143;SDS011;71749;51.920;4.492;2024-01-15T07:13:22;5.10;;;1.10;;
44143;SDS011;71749;51.920;4.492;2024-01-15T07:16:08;3.92;;;0.80;;
44143;SDS011;71749;51.920;4.492;2024-01-15T07:18:53;6.97;;;1.30;;
44143;SDS011;71749;51.920;4.492;2024-01-15T07:21:38;3.15;;;0.73;;
44143;SDS011;71749;51.920;4.492;2024-01-15T07:24:25;3.08;;;0.93;;
44143;SDS011;71749;51.920;4.492;2024-01-15T07:27:10;6.22;;;1.13;;
44143;SDS011;71749;51.920;4.492;2024-01-15T07:29:56;4.53;;;1.10;;
44143;SDS011;71749;51.920;4.492;2024-01-15T07:32:46;7.22;;;1.05;;
44143;SDS011;71749;51.920;4.492;2024-01-15T07:35:31;3.30;;;0.90;;
44143;SDS011;71749;51.920;4.492;2024-01-15T07:38:17;3.00;;;0.75;;
44143;SDS011;71749;51.920;4.492;2024-01-15T07:41:02;6.95;;;1.33;;
44143;SDS011;71749;51.920;4.492;2024-01-15T07:43:47;4.30;;;1.10;;
44143;SDS011;71749;51.920;4.492;2024-01-15T07:46:33;7.28;;;1.13;;
44143;SDS011;71749;51.920;4.492;2024-01-15T07:49:18;8.38;;;1.60;;
44143;SDS011;71749;51.920;4.492;2024-01-15T07:52:04;7.32;;;1.60;;
44143;SDS011;71749;51.920;4.492;2024-01-15T07:54:50;8.55;;;1.35;;
44143;SDS011;71749;51.920;4.492;2024-01-15T07:57:36;8.52;;;1.45;;
44143;SDS011;71749;51.920;4.492;2024-01-15T08:00:21;5.53;;;1.23;;
44143;SDS011;71749;51.920;4.492;2024-01-15T08:03:06;7.72;;;1.83;;
44143;SDS011;71749;51.920;4.492;2024-01-15T08:05:52;6.72;;;1.17;;
44143;SDS011;71749;51.920;4.492;2024-01-15T08:08:39;10.43;;;1.58;;
44143;SDS011;71749;51.920;4.492;2024-01-15T08:11:24;11.90;;;1.92;;
44143;SDS011;71749;51.920;4.492;2024-01-15T08:14:10;8.98;;;1.80;;
44143;SDS011;71749;51.920;4.492;2024-01-15T08:16:56;9.68;;;1.50;;
44143;SDS011;71749;51.920;4.492;2024-01-15T08:19:42;9.95;;;1.70;;
44143;SDS011;71749;51.920;4.492;2024-01-15T08:22:27;11.13;;;2.10;;
44143;SDS011;71749;51.920;4.492;2024-01-15T08:25:15;9.88;;;1.63;;
44143;SDS011;71749;51.920;4.492;2024-01-15T08:28:01;9.70;;;1.70;;
44143;SDS011;71749;51.920;4.492;2024-01-15T08:30:46;5.13;;;1.15;;
44143;SDS011;71749;51.920;4.492;2024-01-15T08:33:31;5.38;;;1.13;;
44143;SDS011;71749;51.920;4.492;2024-01-15T08:36:17;6.22;;;1.08;;
44143;SDS011;71749;51.920;4.492;2024-01-15T08:39:03;5.10;;;1.20;;
44143;SDS011;71749;51.920;4.492;2024-01-15T08:41:49;9.05;;;1.30;;
44143;SDS011;71749;51.920;4.492;2024-01-15T08:44:34;5.00;;;1.10;;
44143;SDS011;71749;51.920;4.492;2024-01-15T08:47:20;6.93;;;1.27;;
44143;SDS011;71749;51.920;4.492;2024-01-15T08:50:05;3.78;;;1.10;;
44143;SDS011;71749;51.920;4.492;2024-01-15T08:52:55;5.60;;;1.15;;
44143;SDS011;71749;51.920;4.492;2024-01-15T08:55:40;7.63;;;1.35;;
44143;SDS011;71749;51.920;4.492;2024-01-15T08:58:27;6.05;;;1.00;;
44143;SDS011;71749;51.920;4.492;2024-01-15T09:01:13;5.57;;;0.90;;
44143;SDS011;71749;51.920;4.492;2024-01-15T09:03:58;6.07;;;1.10;;
44143;SDS011;71749;51.920;4.492;2024-01-15T09:06:44;5.93;;;1.10;;
44143;SDS011;71749;51.920;4.492;2024-01-15T09:09:31;5.57;;;1.10;;
44143;SDS011;71749;51.920;4.492;2024-01-15T09:12:17;5.90;;;1.23;;
44143;SDS011;71749;51.920;4.492;2024-01-15T09:15:03;3.85;;;1.05;;
44143;SDS011;71749;51.920;4.492;2024-01-15T09:17:49;4.28;;;1.00;;
44143;SDS011;71749;51.920;4.492;2024-01-15T09:20:35;7.43;;;1.02;;
44143;SDS011;71749;51.920;4.492;2024-01-15T09:23:20;6.95;;;1.40;;
44143;SDS011;71749;51.920;4.492;2024-01-15T09:26:09;6.75;;;1.17;;
44143;SDS011;71749;51.920;4.492;2024-01-15T09:28:54;4.72;;;1.15;;
44143;SDS011;71749;51.920;4.492;2024-01-15T09:31:40;6.32;;;1.17;;
44143;SDS011;71749;51.920;4.492;2024-01-15T09:34:26;5.20;;;0.98;;
44143;SDS011;71749;51.920;4.492;2024-01-15T09:37:13;6.03;;;1.38;;
44143;SDS011;71749;51.920;4.492;2024-01-15T09:40:20;7.68;;;1.38;;
44143;SDS011;71749;51.920;4.492;2024-01-15T09:43:05;6.72;;;1.20;;
44143;SDS011;71749;51.920;4.492;2024-01-15T09:45:52;6.97;;;1.27;;
44143;SDS011;71749;51.920;4.492;2024-01-15T09:48:39;5.63;;;1.20;;
44143;SDS011;71749;51.920;4.492;2024-01-15T09:51:24;8.98;;;1.50;;
44143;SDS011;71749;51.920;4.492;2024-01-15T09:54:09;5.95;;;1.30;;
44143;SDS011;71749;51.920;4.492;2024-01-15T09:56:55;4.18;;;1.13;;
44143;SDS011;71749;51.920;4.492;2024-01-15T09:59:41;5.85;;;1.40;;
44143;SDS011;71749;51.920;4.492;2024-01-15T10:02:28;5.55;;;1.38;;
44143;SDS011;71749;51.920;4.492;2024-01-15T10:05:13;7.15;;;1.58;;
44143;SDS011;71749;51.920;4.492;2024-01-15T10:07:59;6.38;;;1.30;;
44143;SDS011;71749;51.920;4.492;2024-01-15T10:10:46;5.47;;;1.50;;
44143;SDS011;71749;51.920;4.492;2024-01-15T10:13:32;5.80;;;1.00;;
44143;SDS011;71749;51.920;4.492;2024-01-15T10:16:19;5.28;;;1.02;;
44143;SDS011;71749;51.920;4.492;2024-01-15T10:19:04;6.75;;;1.40;;
44143;SDS011;71749;51.920;4.492;2024-01-15T10:21:50;4.57;;;1.30;;
44143;SDS011;71749;51.920;4.492;2024-01-15T10:24:36;3.75;;;0.98;;
44143;SDS011;71749;51.920;4.492;2024-01-15T10:27:22;8.15;;;1.75;;
44143;SDS011;71749;51.920;4.492;2024-01-15T10:30:08;4.20;;;1.08;;
44143;SDS011;71749;51.920;4.492;2024-01-15T10:33:01;2.83;;;0.82;;
44143;SDS011;71749;51.920;4.492;2024-01-15T10:35:48;6.38;;;1.40;;
44143;SDS011;71749;51.920;4.492;2024-01-15T10:38:33;6.57;;;1.10;;
44143;SDS011;71749;51.920;4.492;2024-01-15T10:41:18;5.32;;;0.90;;
44143;SDS011;71749;51.920;4.492;2024-01-15T10:44:03;5.38;;;0.90;;
44143;SDS011;71749;51.920;4.492;2024-01-15T10:46:49;8.82;;;1.25;;
44143;SDS011;71749;51.920;4.492;2024-01-15T10:49:35;5.13;;;1.23;;
44143;SDS011;71749;51.920;4.492;2024-01-15T10:52:22;6.38;;;1.30;;
44143;SDS011;71749;51.920;4.492;2024-01-15T10:55:08;5.65;;;1.17;;
44143;SDS011;71749;51.920;4.492;2024-01-15T10:58:01;8.32;;;1.30;;
44143;SDS011;71749;51.920;4.492;2024-01-15T11:00:48;6.63;;;1.20;;
44143;SDS011;71749;51.920;4.492;2024-01-15T11:03:34;8.32;;;1.33;;
44143;SDS011;71749;51.920;4.492;2024-01-15T11:06:19;5.32;;;1.20;;
44143;SDS011;71749;51.920;4.492;2024-01-15T11:09:09;9.35;;;1.30;;
44143;SDS011;71749;51.920;4.492;2024-01-15T11:12:08;7.50;;;1.15;;
44143;SDS011;71749;51.920;4.492;2024-01-15T11:15:01;5.85;;;1.30;;
44143;SDS011;71749;51.920;4.492;2024-01-15T11:18:00;4.43;;;1.10;;
44143;SDS011;71749;51.920;4.492;2024-01-15T11:26:44;4.15;;;0.85;;
44143;SDS011;71749;51.920;4.492;2024-01-15T11:29:31;6.68;;;1.27;;
44143;SDS011;71749;51.920;4.492;2024-01-15T11:32:21;8.20;;;1.33;;
44143;SDS011;71749;51.920;4.492;2024-01-15T11:35:19;8.48;;;1.30;;
44143;SDS011;71749;51.920;4.492;2024-01-15T11:38:04;6.68;;;1.33;;
44143;SDS011;71749;51.920;4.492;2024-01-15T11:40:51;5.50;;;1.63;;
44143;SDS011;71749;51.920;4.492;2024-01-15T11:43:37;8.43;;;1.60;;
44143;SDS011;71749;51.920;4.492;2024-01-15T11:46:22;5.93;;;1.38;;
44143;SDS011;71749;51.920;4.492;2024-01-15T11:49:12;4.57;;;0.95;;
44143;SDS011;71749;51.920;4.492;2024-01-15T11:52:23;8.35;;;1.50;;
44143;SDS011;71749;51.920;4.492;2024-01-15T11:55:16;7.07;;;1.15;;
44143;SDS011;71749;51.920;4.492;2024-01-15T11:58:07;4.47;;;1.08;;
44143;SDS011;71749;51.920;4.492;2024-01-15T12:00:54;5.22;;;1.10;;
44143;SDS011;71749;51.920;4.492;2024-01-15T12:03:40;7.72;;;1.88;;
44143;SDS011;71749;51.920;4.492;2024-01-15T12:06:26;6.60;;;1.15;;
44143;SDS011;71749;51.920;4.492;2024-01-15T12:09:11;4.90;;;1.02;;
44143;SDS011;71749;51.920;4.492;2024-01-15T12:11:59;8.80;;;1.85;;
44143;SDS011;71749;51.920;4.492;2024-01-15T12:14:52;6.05;;;1.25;;
44143;SDS011;71749;51.920;4.492;2024-01-15T12:17:38;4.40;;;1.27;;
44143;SDS011;71749;51.920;4.492;2024-01-15T12:20:24;6.13;;;1.20;;
44143;SDS011;71749;51.920;4.492;2024-01-15T12:23:12;6.78;;;1.25;;
44143;SDS011;71749;51.920;4.492;2024-01-15T12:26:01;6.18;;;1.27;;
44143;SDS011;71749;51.920;4.492;2024-01-15T12:28:49;6.90;;;1.30;;
44143;SDS011;71749;51.920;4.492;2024-01-15T12:31:40;7.93;;;1.92;;
44143;SDS011;71749;51.920;4.492;2024-01-15T12:34:28;7.22;;;1.40;;
44143;SDS011;71749;51.920;4.492;2024-01-15T12:37:19;4.30;;;1.20;;
44143;SDS011;71749;51.920;4.492;2024-01-15T12:40:05;5.53;;;1.48;;
44143;SDS011;71749;51.920;4.492;2024-01-15T12:42:51;7.75;;;1.45;;
44143;SDS011;71749;51.920;4.492;2024-01-15T12:45:37;7.45;;;1.50;;
44143;SDS011;71749;51.920;4.492;2024-01-15T12:48:23;4.20;;;1.10;;
44143;SDS011;71749;51.920;4.492;2024-01-15T12:51:08;5.72;;;1.40;;
44143;SDS011;71749;51.920;4.492;2024-01-15T12:53:54;7.45;;;1.42;;
44143;SDS011;71749;51.920;4.492;2024-01-15T12:56:39;5.35;;;1.65;;
44143;SDS011;71749;51.920;4.492;2024-01-15T12:59:24;6.07;;;1.27;;
44143;SDS011;71749;51.920;4.492;2024-01-15T13:02:10;9.82;;;1.95;;
44143;SDS011;71749;51.920;4.492;2024-01-15T13:04:58;9.50;;;1.85;;
44143;SDS011;71749;51.920;4.492;2024-01-15T13:07:45;9.80;;;1.90;;
44143;SDS011;71749;51.920;4.492;2024-01-15T13:10:31;11.48;;;1.90;;
44143;SDS011;71749;51.920;4.492;2024-01-15T13:13:16;9.77;;;1.80;;
44143;SDS011;71749;51.920;4.492;2024-01-15T13:16:02;8.95;;;2.35;;
44143;SDS011;71749;51.920;4.492;2024-01-15T13:18:47;9.25;;;1.88;;
44143;SDS011;71749;51.920;4.492;2024-01-15T13:21:34;10.00;;;1.90;;
44143;SDS011;71749;51.920;4.492;2024-01-15T13:24:21;8.40;;;2.00;;
44143;SDS011;71749;51.920;4.492;2024-01-15T13:27:07;9.48;;;1.60;;
44143;SDS011;71749;51.920;4.492;2024-01-15T13:29:52;8.30;;;1.10;;
44143;SDS011;71749;51.920;4.492;2024-01-15T13:32:37;5.00;;;1.20;;
44143;SDS011;71749;51.920;4.492;2024-01-15T13:35:22;3.42;;;0.85;;
44143;SDS011;71749;51.920;4.492;2024-01-15T13:38:08;5.80;;;0.82;;
44143;SDS011;71749;51.920;4.492;2024-01-15T13:40:53;5.68;;;0.80;;
44143;SDS011;71749;51.920;4.492;2024-01-15T13:43:40;2.55;;;0.80;;
44143;SDS011;71749;51.920;4.492;2024-01-15T13:46:25;5.80;;;1.15;;
44143;SDS011;71749;51.920;4.492;2024-01-15T13:49:14;6.57;;;1.10;;
44143;SDS011;71749;51.920;4.492;2024-01-15T13:52:00;5.57;;;1.13;;
44143;SDS011;71749;51.920;4.492;2024-01-15T13:54:45;3.63;;;0.90;;
44143;SDS011;71749;51.920;4.492;2024-01-15T13:57:34;4.72;;;1.70;;
44143;SDS011;71749;51.920;4.492;2024-01-15T14:00:20;5.88;;;1.50;;
44143;SDS011;71749;51.920;4.492;2024-01-15T14:03:05;5.20;;;1.33;;
44143;SDS011;71749;51.920;4.492;2024-01-15T14:05:51;5.55;;;1.40;;
44143;SDS011;71749;51.920;4.492;2024-01-15T14:08:37;7.03;;;1.30;;
44143;SDS011;71749;51.920;4.492;2024-01-15T14:11:22;8.15;;;1.27;;
44143;SDS011;71749;51.920;4.492;2024-01-15T14:14:08;8.50;;;1.73;;
44143;SDS011;71749;51.920;4.492;2024-01-15T14:16:54;7.95;;;1.98;;
44143;SDS011;71749;51.920;4.492;2024-01-15T14:19:39;11.18;;;2.17;;
44143;SDS011;71749;51.920;4.492;2024-01-15T14:22:24;11.55;;;1.77;;
44143;SDS011;71749;51.920;4.492;2024-01-15T14:25:10;13.02;;;2.40;;
44143;SDS011;71749;51.920;4.492;2024-01-15T14:27:55;9.27;;;1.77;;
44143;SDS011;71749;51.920;4.492;2024-01-15T14:30:40;11.45;;;2.33;;
44143;SDS011;71749;51.920;4.492;2024-01-15T14:33:26;11.52;;;2.25;;
44143;SDS011;71749;51.920;4.492;2024-01-15T14:36:11;8.73;;;1.67;;
44143;SDS011;71749;51.920;4.492;2024-01-15T14:38:57;7.72;;;1.35;;
44143;SDS011;71749;51.920;4.492;2024-01-15T14:41:42;7.88;;;1.50;;
44143;SDS011;71749;51.920;4.492;2024-01-15T14:44:27;8.45;;;1.40;;
44143;SDS011;71749;51.920;4.492;2024-01-15T14:47:15;6.07;;;1.13;;
44143;SDS011;71749;51.920;4.492;2024-01-15T14:50:00;3.97;;;1.10;;
44143;SDS011;71749;51.920;4.492;2024-01-15T14:52:46;5.68;;;1.17;;
44143;SDS011;71749;51.920;4.492;2024-01-15T14:55:32;6.55;;;1.38;;
44143;SDS011;71749;51.920;4.492;2024-01-15T14:58:17;7.35;;;1.30;;
44143;SDS011;71749;51.920;4.492;2024-01-15T15:01:02;5.90;;;1.25;;
44143;SDS011;71749;51.920;4.492;2024-01-15T15:03:48;4.65;;;1.30;;
44143;SDS011;71749;51.920;4.492;2024-01-15T15:06:34;4.55;;;1.27;;
44143;SDS011;71749;51.920;4.492;2024-01-15T15:09:19;6.22;;;1.30;;
44143;SDS011;71749;51.920;4.492;2024-01-15T15:12:04;8.57;;;1.55;;
44143;SDS011;71749;51.920;4.492;2024-01-15T15:14:50;7.35;;;1.55;;
44143;SDS011;71749;51.920;4.492;2024-01-15T15:17:51;9.23;;;1.58;;
44143;SDS011;71749;51.920;4.492;2024-01-15T15:20:36;10.15;;;2.03;;
44143;SDS011;71749;51.920;4.492;2024-01-15T15:23:23;11.93;;;1.90;;
44143;SDS011;71749;51.920;4.492;2024-01-15T15:26:08;6.80;;;1.95;;
44143;SDS011;71749;51.920;4.492;2024-01-15T15:28:54;7.78;;;1.85;;
44143;SDS011;71749;51.920;4.492;2024-01-15T15:31:39;8.63;;;1.67;;
44143;SDS011;71749;51.920;4.492;2024-01-15T15:34:25;5.93;;;1.63;;
44143;SDS011;71749;51.920;4.492;2024-01-15T15:37:11;8.40;;;1.27;;
44143;SDS011;71749;51.920;4.492;2024-01-15T15:39:57;5.35;;;1.40;;
44143;SDS011;71749;51.920;4.492;2024-01-15T15:42:43;8.93;;;1.80;;
44143;SDS011;71749;51.920;4.492;2024-01-15T15:45:31;5.35;;;1.48;;
44143;SDS011;71749;51.920;4.492;2024-01-15T15:48:16;11.00;;;1.60;;
44143;SDS011;71749;51.920;4.492;2024-01-15T15:51:02;8.20;;;2.05;;
44143;SDS011;71749;51.920;4.492;2024-01-15T15:53:48;9.52;;;1.90;;
44143;SDS011;71749;51.920;4.492;2024-01-15T15:56:34;9.00;;;1.77;;
44143;SDS011;71749;51.920;4.492;2024-01-15T15:59:23;11.38;;;1.80;;
44143;SDS011;71749;51.920;4.492;2024-01-15T16:02:09;8.15;;;1.50;;
44143;SDS011;71749;51.920;4.492;2024-01-15T16:04:54;8.40;;;1.25;;
44143;SDS011;71749;51.920;4.492;2024-01-15T16:07:40;11.48;;;1.77;;
44143;SDS011;71749;51.920;4.492;2024-01-15T16:10:26;7.25;;;1.38;;
44143;SDS011;71749;51.920;4.492;2024-01-15T16:13:11;9.68;;;1.60;;
44143;SDS011;71749;51.920;4.492;2024-01-15T16:15:57;10.40;;;1.50;;
44143;SDS011;71749;51.920;4.492;2024-01-15T16:19:02;9.82;;;1.70;;
44143;SDS011;71749;51.920;4.492;2024-01-15T16:22:08;9.15;;;2.00;;
44143;SDS011;71749;51.920;4.492;2024-01-15T16:25:16;7.90;;;1.65;;
44143;SDS011;71749;51.920;4.492;2024-01-15T16:28:05;10.05;;;1.80;;
44143;SDS011;71749;51.920;4.492;2024-01-15T16:30:51;10.40;;;2.00;;
44143;SDS011;71749;51.920;4.492;2024-01-15T16:33:39;5.32;;;1.90;;
44143;SDS011;71749;51.920;4.492;2024-01-15T16:36:27;8.15;;;1.95;;
44143;SDS011;71749;51.920;4.492;2024-01-15T16:39:14;9.25;;;1.63;;
44143;SDS011;71749;51.920;4.492;2024-01-15T16:41:59;10.07;;;1.80;;
44143;SDS011;71749;51.920;4.492;2024-01-15T16:44:45;8.10;;;1.63;;
44143;SDS011;71749;51.920;4.492;2024-01-15T16:47:30;9.45;;;1.60;;
44143;SDS011;71749;51.920;4.492;2024-01-15T16:50:15;7.32;;;1.67;;